Tiempo atmosférico en la estación meteorológica de Tarifa, Cádiz (32 m.)



Fecha
DESCASC
Temp. máxima en grados centígrados (hora)
DESCASC
Temp. mínima en grados centígrados (hora)
DESCASC
Temp. media en grados centígrados
DESCASC
Racha de viento máxima en m/sg (hora)
DESCASC
Velocidad máxima media en intervalos de 10 minutos(hora)
DESCASC
Precipitaciones diarias en mm
DESCASC
Precipitaciones de 00:00 a 06:00 en mm
DESCASC
Precipitaciones de 06:00 a 12:00 en mm
DESCASC
Precipitaciones de 12:00 a 18:00 en mm
DESCASC
Precipitaciones de 18:00 a 24:00 en mm
DESCASC
21-02-2021 14.5 (09:10) 10.7 (13:10) 12.6 15.56 (00:10) 10 (00:20) 5.7 0 3.4 2.3 0
20-02-2021 16 (12:20) 12.8 (01:20) 14.4 17.22 (22:30) 11.11 (23:00) 0 0 0 0 0
19-02-2021 16.1 (15:40) 7.8 (04:20) 12 13.06 (21:10) 8.61 (14:50) 0 0 0 0 0
18-02-2021 15.5 (16:20) 10.1 (00:00) 12.8 8.33 (13:10) 5.56 (13:10) 0 0 0 0 0
17-02-2021 15.1 (14:10) 11.8 (00:00) 13.5 12.5 (04:50) 8.89 (04:50) 0 0 0 0 0
16-02-2021 15.6 (13:40) 12.5 (00:00) 14.1 19.44 (01:50) 13.33 (02:10) 0 0 0 0 0
15-02-2021 15.8 (14:30) 13.9 (00:00) 14.8 23.89 (03:10) 16.11 (08:10) 0 0 0 0 0
14-02-2021 15.8 (11:40) 8.9 (00:00) 12.3 20.56 (22:20) 13.89 (23:30) 0 0 0 0 0
13-02-2021 18.9 (17:10) 7 (00:00) 12.9 7.22 (02:00) 5.56 (01:20) 0 0 0 0 0
12-02-2021 16 (13:20) 11.9 (00:00) 13.9 11.11 (05:00) 7.22 (05:00) 1.2 0.1 1 0.1 0
11-02-2021 16.6 (13:10) 13.9 (00:00) 15.3 9.44 (01:20) 6.11 (01:00) 0 0 0 0 0
10-02-2021 16.1 (15:20) 13.9 (00:00) 15 16.11 (02:20) 10.56 (00:30) 5.2 5 0 0 0.2
09-02-2021 15.9 (12:40) 12.6 (00:00) 14.3 18.33 (19:40) 11.67 (20:00) 3.9 0.7 0.1 1.1 2
08-02-2021 15.7 (15:00) 11.7 (00:00) 13.7 19.72 (08:00) 12.5 (07:50) 35.6 1.3 34.2 0.1 0
07-02-2021 14.1 (21:50) 9.8 (00:00) 12 16.11 (15:10) 11.11 (15:10) 6.9 6.6 0.1 0 0.2
06-02-2021 14.7 (14:10) 9.8 (00:00) 12.3 20.83 (23:50) 10.56 (23:50) 15.1 2.8 1.9 3.5 6.9
05-02-2021 15.4 (13:30) 11.8 (00:00) 13.6 15.56 (23:50) 8.89 (23:50) 1.1 0 0 0 1.1
04-02-2021 16.6 (14:20) 9.9 (00:00) 13.3 12.78 (22:30) 8.61 (22:30) 0 0 0 0 0
03-02-2021 16.5 (14:50) 11.3 (00:00) 13.9 9.17 (15:10) 6.11 (14:20) 0 0 0 0 0
02-02-2021 16.5 (13:00) 12.9 (00:00) 14.7 9.17 (16:50) 6.39 (16:40) 0 0 0 0 0
01-02-2021 15.8 (15:30) 14 (00:00) 14.9 14.44 (02:00) 9.17 (01:40) 3.5 2.3 1.1 0.1 0
31-01-2021 15.9 (13:10) 12.6 (00:00) 14.3 14.44 (23:40) 8.89 (23:40) 0 0 0 0 0
30-01-2021 15.4 (12:50) 13.5 (00:00) 14.4 17.5 (13:30) 11.11 (14:10) 1.8 0 0 1.8 0
29-01-2021 15.3 (16:00) 12.1 (00:00) 13.7 11.11 (23:30) 6.67 (23:30) 0 0 0 0 0
28-01-2021 -- (--) -- (--) -- -- (--) -- (--) -- -- -- 0 0
27-01-2021 -- (--) -- (--) -- -- (--) -- (--) -- -- -- -- --
26-01-2021 16.3 (14:50) 14.9 (00:00) 15.6 12.5 (00:50) 7.78 (01:00) 0 0 0 0 0
25-01-2021 16.9 (14:10) 13.6 (00:00) 15.3 14.44 (15:10) 9.44 (17:00) 2.5 0 0 2.4 0.1

Gráficas

Temp. máximas Temp. mínimas Temp. medias Precipitaciones Rachas de viento máximas Velocidades máximas media en intervalos de 10 minutos

Datos horarios

Fecha y hora oficial Temperatura (ºC) Velocidad del viento (km/h) Dirección del viento Racha (km/h) Dirección de racha Precipitación (mm) Presión (hPa) Tendencia (hPa) Humedad (%)
2021-02-23 23:00:00 14.1 40 Este 64 Este 0 1025.5 0.7 84
2021-02-23 22:00:00 14 41 Este 65 Este 0 1024.8 0 81
2021-02-23 21:00:00 14 31 Este 54 Este 0 1025.2 0.8 79
2021-02-23 20:00:00 14.3 27 Este 50 Este 0 1024.8 0.4 75
2021-02-23 19:00:00 14.5 31 Este 56 Este 0 1024.8 -- 76
2021-02-23 18:00:00 14.9 39 Este 55 Este 0 1024.4 -- 80
2021-02-23 17:00:00 15.5 33 Este 48 Este 0 1024.4 -- 71
2021-02-23 16:00:00 16 27 Este 49 Este 0 1024.6 -- 70
2021-02-23 15:00:00 16 28 Nordeste 48 Nordeste 0 1024.9 -- 71
2021-02-23 14:00:00 16.1 31 Nordeste 49 Este 0 1024.8 -- 67
2021-02-23 13:00:00 16.2 27 Nordeste 51 Este 0 1025.2 -- 61
2021-02-23 12:00:00 15.5 25 Nordeste 39 Este 0 1025.6 -- 56
2021-02-23 11:00:00 15 18 Este 27 Este 0 1025.4 -- 60
2021-02-23 10:00:00 14.3 13 Nordeste 22 Este 0 1024.8 -- 57
2021-02-23 09:00:00 11.7 15 Nordeste 20 Nordeste 0 1023.8 -- 64
2021-02-23 08:00:00 6.8 5 Norte 9 Norte 0 1023.2 -- 99
2021-02-23 07:00:00 7.3 6 Nordeste 9 Nordeste 0 1022.7 -- 99
2021-02-23 06:00:00 6.9 4 Nordeste 10 Norte 0 1022.4 -- 97
2021-02-23 05:00:00 7.3 5 Nordeste 11 Norte 0 1022.4 -- 96
2021-02-23 04:00:00 8.7 9 Norte 13 Norte 0 1022.3 -- 93
2021-02-23 03:00:00 8.4 11 Norte 13 Norte 0 1022.3 -- 95
2021-02-23 02:00:00 8.3 10 Norte 12 Norte 0 1022.2 -- 96
2021-02-23 01:00:00 8.4 8 Norte 11 Norte 0 1022 -- 95
2021-02-23 00:00:00 8.8 8 Norte 13 Norte 0 1021.9 -- 92
2021-02-22 23:00:00 9.8 11 Norte 13 Norte 0 1021.7 -- 88
2021-02-22 22:00:00 10.1 10 Norte 14 Norte 0 1021.3 -- 87
2021-02-22 21:00:00 11.7 8 Norte 14 Norte 0 1020.6 -- 79
2021-02-22 20:00:00 12.5 8 Noroeste 18 Oeste 0 1020.1 -- 75
2021-02-22 19:00:00 14.1 11 Oeste 24 Sudoeste 0 1019.5 -- 67
2021-02-22 18:00:00 14.7 15 Sudoeste 27 Sudoeste 0 1018.9 -- 69
2021-02-22 17:00:00 15.1 17 Oeste 26 Sudoeste 0 1018.7 -- 67
2021-02-22 16:00:00 15.3 18 Sudoeste 29 Oeste 0 1018.4 -- 63
2021-02-22 15:00:00 15.1 18 Sudoeste 29 Oeste 0 1018 -- 67
2021-02-22 14:00:00 14.7 19 Oeste 28 Oeste 0 1018.3 -- 67
2021-02-22 13:00:00 14.2 15 Sudoeste 30 Sudoeste 0 1018.5 -- 72
2021-02-22 12:00:00 13 21 Sudoeste 28 Sudoeste 0 1018.4 -- 79
2021-02-22 11:00:00 12 20 Sur 36 Sur 0 1018.1 -- 84
2021-02-22 10:00:00 10 4 Sudoeste 10 Norte 0 1017.9 -- 86
2021-02-22 09:00:00 7.9 6 Nordeste 31 Noroeste 1.4 1016.9 -- 99
2021-02-22 08:00:00 8.9 22 Noroeste 44 Oeste 2 1017.2 -- 92
2021-02-22 07:00:00 9.4 7 Oeste 12 Noroeste 0 1015.8 1.7 82
2021-02-22 06:00:00 8.7 9 Norte 13 Noroeste 0 1014.6 -- 85
2021-02-22 05:00:00 9.8 9 Norte 24 Sudoeste 0 1014.5 -- 82
2021-02-22 04:00:00 9.8 13 Norte 21 Noroeste 0 1014.1 -- 78
2021-02-22 03:00:00 10.4 11 Norte 27 Noroeste 0 1013.7 -- 74
2021-02-22 02:00:00 11.5 13 Noroeste 28 Noroeste 0 1013.1 -- 70
2021-02-22 01:00:00 12.2 15 Noroeste 30 Noroeste 0 1012.6 -- 73
2021-02-22 00:00:00 11.9 15 Noroeste 28 Oeste 0 1011.9 -- 76
2021-02-21 23:00:00 11.9 16 Noroeste 37 Oeste 0 1011.3 -- 71
2021-02-21 22:00:00 13.2 21 Noroeste 44 Oeste 0 1010.6 2.8 72
2021-02-21 21:00:00 13.5 22 Oeste 44 Oeste 0 1009.9 -- 70
2021-02-21 20:00:00 13.2 23 Oeste 40 Oeste 0 1008.9 -- 70
2021-02-21 19:00:00 13 23 Oeste 46 Oeste 0 1007.8 -- 71
2021-02-21 18:00:00 13 24 Oeste 49 Oeste 0 1006.4 -- 70
2021-02-21 17:00:00 13 26 Oeste 52 Oeste 0 1005.6 -- 75
2021-02-21 16:00:00 13 28 Oeste 49 Oeste 0 1004.5 -- 81
2021-02-21 15:00:00 12.9 28 Oeste 44 Oeste 0 1003.4 -- 82
2021-02-21 14:00:00 12 15 Oeste 38 Noroeste 0.4 1003.1 -- 88
2021-02-21 13:00:00 11.1 30 Oeste 50 Oeste 1.9 1002.6 -- 91
2021-02-21 12:00:00 11 21 Sur 50 Sudoeste 2.9 1002.4 -- 99
2021-02-21 11:00:00 13.8 17 Sur 29 Sur 0.3 1001.8 -- 87
2021-02-21 10:00:00 14.3 19 Sudoeste 31 Sudoeste 0.2 1002.2 -- 96
2021-02-21 09:00:00 14.4 6 Sudoeste 26 Sudoeste 0 1002.2 -- 88
2021-02-21 08:00:00 13.9 15 Este 24 Este 0 1001.6 -- 89
2021-02-21 07:00:00 13.5 16 Este 25 Este 0 1001.9 -- 91
2021-02-21 06:00:00 13.6 15 Este 23 Nordeste 0 1002.9 -- 92
2021-02-21 05:00:00 14 10 Nordeste 24 Nordeste 0 1003.4 -- 92
2021-02-21 04:00:00 14.1 17 Nordeste 37 Nordeste 0 1004 -- 91
2021-02-21 03:00:00 14.3 23 Este 46 Este 0 1004 -- 89
2021-02-21 02:00:00 14.2 30 Este 53 Este 0 1004.5 -- 87
2021-02-21 01:00:00 14.1 36 Nordeste 56 Nordeste 0 1004.6 -- 87
2021-02-21 00:00:00 14 36 Este 57 Este 0 1004.5 -- 87
2021-02-20 23:00:00 14.1 40 Nordeste 62 Este 0 1004.7 -- 88
2021-02-20 22:00:00 14.1 35 Este 51 Este 0 1004.8 -- 90
2021-02-20 21:00:00 14.2 32 Este 60 Este 0 1005.6 -- 86
2021-02-20 20:00:00 14.1 34 Este 53 Nordeste 0 1006 -- 86
2021-02-20 19:00:00 14.2 30 Este 52 Este 0 1006.7 -- 87
2021-02-20 18:00:00 14.7 36 Este 58 Nordeste 0 1007.2 -- 84
2021-02-20 17:00:00 15.1 35 Este 57 Este 0 1007.4 -- 83
2021-02-20 16:00:00 15 36 Este 54 Este 0 1007.6 -- 82
2021-02-20 15:00:00 15.3 38 Este 55 Este 0 1008.4 -- 84
2021-02-20 14:00:00 15.7 37 Este 58 Este 0 1009.4 -- 84
2021-02-20 13:00:00 15.1 36 Este 60 Este 0 1010.3 -- 85
2021-02-20 12:00:00 15.6 34 Este 52 Este 0 1011.1 -- 82
2021-02-20 11:00:00 15.1 32 Este 45 Nordeste 0 1011.8 -- 84
2021-02-20 10:00:00 14.4 30 Nordeste 48 Este 0 1012.1 -- 87
2021-02-20 09:00:00 14.1 28 Nordeste 49 Nordeste 0 1011.8 0.4 90
2021-02-20 08:00:00 13.6 25 Nordeste 45 Nordeste 0 1011.6 -- 89
2021-02-20 07:00:00 13.6 16 Este 46 Nordeste 0 1011.7 -- 90
2021-02-20 06:00:00 13.4 21 Este 46 Este 0 1011.4 -- 91
2021-02-20 05:00:00 13.2 27 Este 44 Este 0 1011.4 -- 90
2021-02-20 04:00:00 13.3 30 Nordeste 46 Este 0 1011.6 -1.5 90
2021-02-20 03:00:00 13 26 Este 44 Nordeste 0 1011.8 -- 89
2021-02-20 02:00:00 13.1 24 Este 40 Este 0 1012.3 -- 90
2021-02-20 01:00:00 12.9 21 Este 38 Este 0 1013.1 -- 89
2021-02-20 00:00:00 13.3 22 Este 41 Este 0 1013.7 -- 89
2021-02-19 23:00:00 13.2 24 Este 44 Este 0 1013.7 0.1 90
2021-02-19 22:00:00 13.1 28 Este 47 Este 0 1013.4 -- 90
2021-02-19 21:00:00 13.2 30 Este 43 Este 0 1013.1 -- 90
2021-02-19 20:00:00 13.2 28 Este 39 Este 0 1013.6 -- 92
2021-02-19 19:00:00 13.8 19 Este 42 Este 0 1013.5 -- 91
2021-02-19 18:00:00 14.6 31 Este 42 Este 0 1013.1 -- 87
2021-02-19 17:00:00 15.2 28 Este 43 Este 0 1013.4 -1.1 84
2021-02-19 16:00:00 15.9 27 Este 39 Este 0 1013.5 -- 81
2021-02-19 15:00:00 15.7 28 Este 42 Este 0 1013.7 -- 82
2021-02-19 14:00:00 15.6 27 Este 39 Este 0 1014.5 -- 85
2021-02-19 13:00:00 15.3 28 Este 40 Este 0 1015.1 -- 86
2021-02-19 12:00:00 15.3 27 Este 40 Este 0 1015.5 -- 87
2021-02-19 11:00:00 14.8 22 Este 32 Este 0 1015.9 -- 87
2021-02-19 10:00:00 14.2 14 Este 21 Este 0 1016.1 -- 91
2021-02-19 09:00:00 9.8 3 Nordeste 9 Nordeste 0 1015.6 -- 97
2021-02-19 08:00:00 9 7 Nordeste 14 Este 0 1015 -- 98
2021-02-19 07:00:00 8.4 6 Este 10 Este 0 1015.2 -- 99
2021-02-19 06:00:00 8.7 5 Nordeste 8 Este 0 1014.9 -- 99
2021-02-19 05:00:00 7.9 5 Nordeste 7 Norte 0 1015.1 -- 99
2021-02-19 04:00:00 8.1 5 Norte 9 Norte 0 1015.1 -- 97
2021-02-19 03:00:00 9.9 7 Norte 14 Noroeste 0 1015.2 -- 90
2021-02-19 02:00:00 11.1 12 Noroeste 15 Noroeste 0 1015.2 -- 86
2021-02-19 01:00:00 9.7 11 Noroeste 14 Noroeste 0 1015.3 -- 92
2021-02-19 00:00:00 10.8 11 Norte 14 Norte 0 1015.5 -- 90
2021-02-18 23:00:00 10.6 7 Noroeste 9 Noroeste 0 1015.7 -- 95
2021-02-18 22:00:00 11.8 7 Noroeste 13 Noroeste 0 1015.6 -- 93
2021-02-18 21:00:00 12.3 8 Noroeste 12 Noroeste 0 1015.4 -- 94
2021-02-18 20:00:00 13.8 7 Noroeste 16 Oeste 0 1015.4 -- 90
2021-02-18 19:00:00 14.3 10 Oeste 22 Oeste 0 1014.8 -- 87
2021-02-18 18:00:00 15 13 Oeste 20 Oeste 0 1014.7 -- 83
2021-02-18 17:00:00 15.3 14 Oeste 24 Oeste 0 1014.5 -- 81
2021-02-18 16:00:00 15.2 17 Oeste 27 Oeste 0 1014.9 -- 79
2021-02-18 15:00:00 15.1 16 Oeste 26 Oeste 0 1015 -- 81
2021-02-18 14:00:00 14.7 17 Oeste 30 Oeste 0 1015.7 -- 83
2021-02-18 13:00:00 14.4 18 Oeste 28 Oeste 0 1016.5 -- 83
2021-02-18 12:00:00 13.8 14 Oeste 21 Oeste 0 1016.8 -- 90
2021-02-18 11:00:00 13.3 12 Sudoeste 18 Sudoeste 0 1016.5 -- 91
2021-02-18 10:00:00 13.9 12 Este 22 Este 0 1016 -- 84
2021-02-18 09:00:00 12 12 Este 19 Este 0 1015.4 -- 91
2021-02-18 08:00:00 10.2 10 Nordeste 14 Nordeste 0 1014.6 -- 95
2021-02-18 07:00:00 10.6 8 Nordeste 18 Nordeste 0 1014.3 -- 92
2021-02-18 06:00:00 11.1 12 Nordeste 23 Nordeste 0 1014.4 -- 91
2021-02-18 05:00:00 11.1 13 Nordeste 21 Este 0 1014.5 -- 91
2021-02-18 04:00:00 11.4 14 Nordeste 26 Este 0 1014.7 -- 91
2021-02-18 03:00:00 11 10 Nordeste 20 Este 0 1014.8 -- 94
2021-02-18 02:00:00 11.7 13 Este 22 Este 0 1015.1 -- 94
2021-02-18 01:00:00 11.6 13 Nordeste 26 Este 0 1015 -- 95
2021-02-18 00:00:00 11.9 17 Nordeste 25 Nordeste 0 1015.2 -- 94
2021-02-17 23:00:00 11.9 18 Este 29 Este 0 1015.3 -- 94
2021-02-17 22:00:00 11.9 20 Este 30 Este 0 1015.2 -- 94
2021-02-17 21:00:00 12.1 18 Este 33 Este 0 1015.1 -- 94
2021-02-17 20:00:00 12.4 20 Nordeste 29 Este 0 1015 -- 93
2021-02-17 19:00:00 13 12 Nordeste 36 Este 0 1015 -- 90
2021-02-17 18:00:00 14.1 27 Este 41 Este 0 1014.8 -- 86
2021-02-17 17:00:00 14.5 24 Este 37 Este 0 1015.4 -- 84
2021-02-17 16:00:00 14.8 27 Este 40 Este 0 1015.4 -- 82
2021-02-17 15:00:00 14.9 27 Este 42 Este 0 1016 -- 80
2021-02-17 14:00:00 14.9 27 Este 43 Este 0 1017 -- 81
2021-02-17 13:00:00 14.6 28 Este 43 Este 0 1017.8 -- 80
2021-02-17 12:00:00 14.6 24 Nordeste 42 Este 0 1018.5 -- 81
2021-02-17 11:00:00 14.3 21 Nordeste 43 Nordeste 0 1018.9 -- 84
2021-02-17 10:00:00 13.3 22 Este 40 Este 0 1018.6 -- 87
2021-02-17 09:00:00 12.3 25 Este 40 Este 0 1018.5 -- 90
2021-02-17 08:00:00 12.1 25 Este 37 Este 0 1018.3 -- 90
2021-02-17 07:00:00 12.2 21 Nordeste 45 Este 0 1018.4 -- 90
2021-02-17 06:00:00 12.1 24 Nordeste 41 Este 0 1018.4 -- 90
2021-02-17 05:00:00 12.3 32 Este 45 Nordeste 0 1018.4 -- 89
2021-02-17 04:00:00 12.3 18 Nordeste 35 Nordeste 0 1019.3 -- 89
2021-02-17 03:00:00 12.3 19 Nordeste 33 Nordeste 0 1019.6 -- 89
2021-02-17 02:00:00 12.5 16 Nordeste 33 Este 0 1019.9 -- 90
2021-02-17 01:00:00 12.5 17 Nordeste 35 Este 0 1020.3 -- 91
2021-02-17 00:00:00 12.6 19 Nordeste 33 Nordeste 0 1020.7 -- 92
2021-02-16 23:00:00 12.6 17 Nordeste 35 Este 0 1020.8 -- 91
2021-02-16 22:00:00 12.5 19 Nordeste 32 Nordeste 0 1020.8 -- 91
2021-02-16 21:00:00 12.5 18 Nordeste 30 Este 0 1020.8 -- 91
2021-02-16 20:00:00 12.7 17 Nordeste 34 Nordeste 0 1020.7 -- 92
2021-02-16 19:00:00 13.3 24 Nordeste 40 Nordeste 0 1020.4 -- 90
2021-02-16 18:00:00 14.3 26 Nordeste 46 Nordeste 0 1020.6 -- 85
2021-02-16 17:00:00 14.7 30 Este 45 Este 0 1020.8 -- 83
2021-02-16 16:00:00 14.9 34 Nordeste 48 Este 0 1021.4 -- 79
2021-02-16 15:00:00 15.1 34 Este 49 Este 0 1021.9 -- 79
2021-02-16 14:00:00 15.6 30 Este 50 Nordeste 0 1023 -- 79
2021-02-16 13:00:00 15.4 32 Este 50 Este 0 1023.9 -- 78
2021-02-16 12:00:00 15.5 30 Este 49 Nordeste 0 1024.2 -- 77
2021-02-16 11:00:00 14.8 33 Este 54 Este 0 1024 -- 80
2021-02-16 10:00:00 13.9 31 Este 51 Este 0 1023.9 -- 84
2021-02-16 09:00:00 13.9 31 Este 53 Este 0 1023.5 -- 86
2021-02-16 08:00:00 13.8 31 Este 54 Nordeste 0 1023.2 -- 84
2021-02-16 07:00:00 13.5 32 Nordeste 56 Este 0 1022.7 -- 86
2021-02-16 06:00:00 13.5 35 Este 62 Este 0 1022.5 -- 86
2021-02-16 05:00:00 13.6 37 Este 59 Este 0 1023.2 -- 81
2021-02-16 04:00:00 13.8 38 Este 66 Este 0 1023.7 -- 84
2021-02-16 03:00:00 13.7 41 Este 69 Este 0 1023.6 -- 86
2021-02-16 02:00:00 13.8 43 Este 70 Este 0 1023.7 -- 85
2021-02-16 01:00:00 14 44 Este 68 Este 0 1024.4 -- 85
2021-02-16 00:00:00 14.1 43 Este 68 Este 0 1024.2 -- 87
2021-02-15 23:00:00 14 47 Este 72 Este 0 1024.4 -- 86
2021-02-15 22:00:00 14 46 Este 73 Este 0 1023.9 -- 87
2021-02-15 21:00:00 14 45 Este 70 Este 0 1023.8 -- 88
2021-02-15 20:00:00 14 44 Este 71 Este 0 1023.4 -- 86
2021-02-15 19:00:00 14.1 45 Este 68 Este 0 1023.3 -- 86
2021-02-15 18:00:00 14.6 47 Este 75 Este 0 1023 -- 84
2021-02-15 17:00:00 15.1 46 Este 78 Este 0 1023.4 -- 84
2021-02-15 16:00:00 15.3 50 Este 78 Este 0 1023.4 -- 81
2021-02-15 15:00:00 15.4 53 Este 76 Este 0 1023.4 -- 81
2021-02-15 14:00:00 15.5 50 Este 75 Este 0 1023.6 -- 82
2021-02-15 13:00:00 15.5 52 Este 83 Este 0 1024.3 -- 82
2021-02-15 12:00:00 15.4 51 Este 79 Este 0 1024.5 -- 82
2021-02-15 11:00:00 14.8 49 Este 84 Este 0 1024.8 -- 82
2021-02-15 10:00:00 14.3 54 Este 83 Este 0 1023.7 -- 86
2021-02-15 09:00:00 14.2 54 Este 84 Este 0 1023 -- 83
2021-02-15 08:00:00 14.1 55 Este 82 Este 0 1023 -- 86
2021-02-15 07:00:00 14.1 54 Este 81 Este 0 1022.7 -- 87
2021-02-15 06:00:00 14.1 54 Este 81 Este 0 1022.3 -- 85
2021-02-15 05:00:00 14.1 50 Este 83 Este 0 1022.5 -- 86
2021-02-15 04:00:00 14.2 50 Este 86 Este 0 1023 -- 87
2021-02-15 03:00:00 14.2 53 Este 82 Este 0 1023.2 -- 87
2021-02-15 02:00:00 14.2 49 Este 84 Este 0 1023.3 -- 89
2021-02-15 01:00:00 14.3 50 Este 78 Este 0 1023.3 -- 88
2021-02-15 00:00:00 14.4 49 Este 74 Este 0 1023.5 -- 87
2021-02-14 23:00:00 14.4 46 Este 74 Este 0 1023.7 -- 90
2021-02-14 22:00:00 14.2 39 Este 67 Este 0 1023.3 -- 93
2021-02-14 21:00:00 14.4 42 Este 69 Este 0 1022.8 -- 95
2021-02-14 20:00:00 14.5 46 Este 71 Este 0 1022.4 -- 91
2021-02-14 19:00:00 14.4 35 Este 63 Este 0 1021.9 -0.2 90
2021-02-14 18:00:00 14.7 32 Este 53 Este 0 1021.7 0.9 93
2021-02-14 17:00:00 15.2 23 Nordeste 49 Nordeste 0 1022.5 -- 87
2021-02-14 16:00:00 15.3 28 Nordeste 61 Este 0 1022.1 -- 85
2021-02-14 15:00:00 15.3 47 Este 65 Este 0 1020.8 -- 83
2021-02-14 14:00:00 15.3 35 Este 58 Este 0 1021.6 -- 84
2021-02-14 13:00:00 15.6 31 Este 52 Nordeste 0 1022.2 -- 85
2021-02-14 12:00:00 15.7 35 Este 51 Nordeste 0 1022.4 -- 74
2021-02-14 11:00:00 15.2 30 Este 48 Este 0 1021.8 -- 79
2021-02-14 10:00:00 15 27 Este 51 Nordeste 0 1021.3 -- 72
2021-02-14 09:00:00 15 31 Este 49 Este 0 1019.8 -- 54
2021-02-14 08:00:00 14 31 Este 44 Este 0 1019 -- 64
2021-02-14 07:00:00 14.3 23 Este 42 Este 0 1019 -- 61
2021-02-14 06:00:00 14.6 20 Nordeste 34 Este 0 1019.2 -- 52
2021-02-14 05:00:00 14.5 12 Nordeste 23 Nordeste 0 1019.4 -- 44
2021-02-14 04:00:00 13.6 18 Nordeste 30 Nordeste 0 1019.6 -- 48
2021-02-14 03:00:00 12.4 19 Este 24 Este 0 1019.5 -- 79
2021-02-14 02:00:00 9.2 8 Este 14 Este 0 1020 -- 84
2021-02-14 01:00:00 9.7 6 Norte 12 Norte 0 1020.4 -- 81
2021-02-14 00:00:00 10.7 5 Norte 12 Este 0 1019.9 -- 77
2021-02-13 23:00:00 12.8 6 Nordeste 19 Este 0 1020 -- 70
2021-02-13 22:00:00 10.3 6 Este 10 Este 0 1020 -- 92
2021-02-13 21:00:00 10.3 4 Nordeste 10 Norte 0 1020 -- 81
2021-02-13 20:00:00 11.7 3 Nordeste 6 Este 0 1019.6 -- 79
2021-02-13 19:00:00 16.3 0 Calma 5 Noroeste 0 1019.4 -- 72
2021-02-13 18:00:00 17.3 0 Calma 7 Oeste 0 1019.3 -- 67
2021-02-13 17:00:00 18.6 3 Sudoeste 9 Oeste 0 1019.5 -- 59
2021-02-13 16:00:00 16.7 3 Noroeste 10 Oeste 0 1019.7 -- 70
2021-02-13 15:00:00 16.4 5 Oeste 10 Oeste 0 1020.1 -- 76
2021-02-13 14:00:00 17.7 5 Sur 11 Sur 0 1020.5 -- 69
2021-02-13 13:00:00 16.7 5 Sur 10 Sur 0 1021 -- 66
2021-02-13 08:00:00 8.8 6 Norte 10 Nordeste 0 1020.1 0.9 99
2021-02-13 07:00:00 7.8 5 Nordeste 11 Nordeste 0 1019.9 0.5 98
2021-02-13 06:00:00 7.5 5 Nordeste 9 Norte 0 1019.5 -0.2 95
2021-02-13 05:00:00 8.8 4 Norte 17 Noroeste 0 1019.2 -1 93
2021-02-13 04:00:00 11.2 8 Noroeste 18 Oeste 0 1019.4 -1.1 94
2021-02-13 03:00:00 11.4 11 Noroeste 26 Noroeste 0 1019.7 -0.8 93
2021-02-13 02:00:00 11.7 19 Noroeste 26 Noroeste 0 1020.2 -0.6 92
2021-02-13 01:00:00 12.2 15 Noroeste 22 Oeste 0 1020.5 -0.1 90
2021-02-13 00:00:00 12.6 13 Noroeste 19 Noroeste 0 1020.5 0.2 93
2021-02-12 23:00:00 12.5 8 Oeste 13 Oeste 0 1020.8 0.8 98
2021-02-12 22:00:00 13.2 7 Oeste 20 Oeste 0 1020.6 1.1 98
2021-02-12 21:00:00 14 11 Oeste 27 Oeste 0 1020.3 1.4 96
2021-02-12 20:00:00 14 14 Oeste 32 Oeste 0 1020 1.4 95
2021-02-12 19:00:00 14.3 18 Oeste 34 Oeste 0 1019.5 0.6 94
2021-02-12 18:00:00 15 22 Oeste 35 Oeste 0.1 1018.9 -0.4 90
2021-02-12 17:00:00 15.5 21 Oeste 37 Oeste 0 1018.6 -1.2 85
2021-02-12 16:00:00 15.6 23 Oeste 36 Oeste 0 1018.9 -1.3 88
2021-02-12 15:00:00 15.8 23 Oeste 34 Oeste 0 1019.3 -0.8 91
2021-02-12 14:00:00 15.7 20 Oeste 33 Oeste 0 1019.8 0.1 94
2021-02-12 13:00:00 15.4 19 Oeste 40 Sudoeste 0 1020.2 1 99
2021-02-12 12:00:00 14.8 24 Sudoeste 39 Oeste 0.1 1020.1 1.6 99
2021-02-12 11:00:00 15.1 23 Sudoeste 37 Sudoeste 0 1019.7 1.3 99
2021-02-12 10:00:00 14.5 22 Sudoeste 38 Sudoeste 0.1 1019.2 1.1 99
2021-02-12 09:00:00 14.2 23 Sudoeste 34 Sudoeste 0.1 1018.5 -- 99
2021-02-12 08:00:00 13.9 18 Sudoeste 32 Sudoeste 0.6 1018.4 -- 99
2021-02-12 07:00:00 13.9 22 Sudoeste 36 Sudoeste 0.1 1018.1 -- 99
2021-02-12 06:00:00 14.1 18 Sudoeste 39 Sudoeste 0.1 1017.9 -- 99
2021-02-12 05:00:00 14.3 26 Sudoeste 40 Sudoeste 0 1017.9 -- 99
2021-02-12 04:00:00 14.3 21 Sudoeste 38 Sudoeste 0 1017.9 -- 99
2021-02-12 03:00:00 14.3 23 Sudoeste 36 Sudoeste 0 1017.8 -- 99
2021-02-12 02:00:00 14.3 17 Oeste 27 Oeste 0 1017.7 -- 99
2021-02-12 01:00:00 14.3 9 Noroeste 21 Oeste 0 1017.2 -- 99
2021-02-12 00:00:00 14.3 11 Oeste 19 Oeste 0 1017.3 -- 99
2021-02-11 23:00:00 14.2 12 Oeste 17 Sudoeste 0 1017.3 -- 99
2021-02-11 22:00:00 14.2 11 Oeste 19 Oeste 0 1017.2 -- 99
2021-02-11 21:00:00 14.4 13 Oeste 22 Oeste 0 1016.8 -- 99
2021-02-11 20:00:00 14.3 12 Oeste 24 Oeste 0 1016.8 -- 99
2021-02-11 19:00:00 14.5 13 Oeste 27 Oeste 0 1016.2 -- 99
2021-02-11 18:00:00 14.7 14 Oeste 28 Oeste 0 1015.8 -- 99
2021-02-11 17:00:00 14.5 20 Oeste 29 Oeste 0 1015.7 -- 99
2021-02-11 16:00:00 14.9 16 Oeste 29 Oeste 0 1015.6 -- 99
2021-02-11 15:00:00 15.8 18 Oeste 28 Oeste 0 1015.8 -- 98
2021-02-11 14:00:00 16.5 17 Oeste 28 Oeste 0 1016.1 -- 93
2021-02-11 13:00:00 16.4 15 Oeste 23 Sudoeste 0 1016.9 -- 93
2021-02-11 12:00:00 16.3 11 Oeste 20 Oeste 0 1017.3 -- 95
2021-02-11 11:00:00 15.7 11 Sudoeste 19 Sudoeste 0 1017.5 -- 97
2021-02-11 10:00:00 14.9 10 Sudoeste 21 Sudoeste 0 1017.4 -- 99
2021-02-11 09:00:00 14.3 10 Sudoeste 19 Sudoeste 0 1016.8 -- 99
2021-02-11 08:00:00 14.2 8 Sudoeste 18 Sudoeste 0 1016.6 -- 99
2021-02-11 07:00:00 14.2 8 Oeste 20 Oeste 0 1016.6 -- 99
2021-02-11 06:00:00 14.3 12 Oeste 22 Oeste 0 1016 -- 99
2021-02-11 05:00:00 14.4 14 Oeste 23 Oeste 0 1016.3 -- 99
2021-02-11 04:00:00 14.5 10 Sudoeste 28 Sudoeste 0 1016.7 -- 99
2021-02-11 03:00:00 14.7 18 Sudoeste 28 Sudoeste 0 1017 -- 99
2021-02-11 02:00:00 14.7 16 Sudoeste 34 Sudoeste 0 1017.4 -- 99
2021-02-11 01:00:00 14.7 22 Sudoeste 29 Sudoeste 0 1017.3 -- 99
2021-02-11 00:00:00 15 17 Sudoeste 35 Sudoeste 0 1017 -- 99
2021-02-10 23:00:00 15.1 18 Sudoeste 37 Sudoeste 0 1016.7 -- 99
2021-02-10 22:00:00 15.4 23 Sudoeste 36 Sudoeste 0 1016.3 -- 99
2021-02-10 21:00:00 15.1 23 Sudoeste 36 Sudoeste 0 1016 -- 99
2021-02-10 20:00:00 15.1 22 Sudoeste 40 Sudoeste 0 1015.7 -- 99
2021-02-10 19:00:00 14.9 18 Oeste 42 Oeste 0.2 1015.3 -- 99
2021-02-10 18:00:00 15.6 25 Oeste 39 Sudoeste 0 1014.9 -- 99
2021-02-10 17:00:00 16 22 Sudoeste 42 Sudoeste 0 1014.9 -- 95
2021-02-10 16:00:00 15.8 28 Sudoeste 46 Sudoeste 0 1014.7 -- 96
2021-02-10 15:00:00 15.8 31 Sudoeste 51 Sudoeste 0 1014.6 -- 98
2021-02-10 14:00:00 15.9 30 Sudoeste 48 Sudoeste 0 1014.5 -- 97
2021-02-10 13:00:00 15.9 29 Sudoeste 48 Sudoeste 0 1014.6 -- 94
2021-02-10 12:00:00 15.8 31 Sudoeste 49 Sudoeste 0 1014.4 -- 96
2021-02-10 11:00:00 15.6 32 Sudoeste 55 Oeste 0 1013.6 -- 94
2021-02-10 10:00:00 15.7 32 Sudoeste 57 Sudoeste 0 1012.8 -- 95
2021-02-10 09:00:00 15.7 32 Sudoeste 50 Sudoeste 0 1012.1 -- 97
2021-02-10 08:00:00 15.4 32 Sudoeste 52 Sudoeste 0 1011.2 -- 96
2021-02-10 07:00:00 15.4 36 Sudoeste 58 Sudoeste 0 1010.7 -- 96
2021-02-10 06:00:00 15.2 32 Sudoeste 53 Oeste 0 1010.6 -- 97
2021-02-10 05:00:00 15 32 Sudoeste 55 Sudoeste 0 1010.2 -- 98
2021-02-10 04:00:00 14.9 35 Sudoeste 52 Sudoeste 0.1 1010.3 -- 99
2021-02-10 03:00:00 14 26 Oeste 58 Sudoeste 4.7 1010.4 -- 99
2021-02-10 02:00:00 15.2 31 Sudoeste 54 Oeste 0.2 1010.5 -- 94
2021-02-10 01:00:00 15.1 33 Sudoeste 55 Sudoeste 0 1010.8 -- 93
2021-02-10 00:00:00 14.7 32 Oeste 65 Oeste 0.2 1010.7 -- 97
2021-02-09 23:00:00 14.4 37 Oeste 66 Oeste 0.3 1010.5 -- 97
2021-02-09 22:00:00 15.2 33 Sudoeste 61 Oeste 0 1009.8 -- 95
2021-02-09 21:00:00 14.4 32 Sudoeste 64 Sudoeste 0.9 1009.5 -- 98
2021-02-09 20:00:00 14.6 42 Sudoeste 66 Sudoeste 0.6 1009.3 -- 97
2021-02-09 19:00:00 15.6 37 Sudoeste 63 Sudoeste 0 1008.6 -- 93
2021-02-09 18:00:00 15.6 32 Sudoeste 59 Sudoeste 0 1008.5 -- 94
2021-02-09 17:00:00 15.7 33 Sudoeste 54 Sudoeste 0 1008.5 -- 91
2021-02-09 16:00:00 15.5 35 Sudoeste 53 Sudoeste 0 1008.4 -- 96
2021-02-09 15:00:00 15.7 30 Sudoeste 51 Sudoeste 0 1008.8 -- 97
2021-02-09 14:00:00 14.8 33 Sudoeste 59 Sudoeste 1 1009.2 -- 99
2021-02-09 13:00:00 15.6 34 Sudoeste 58 Sudoeste 0.1 1010.1 -- 90
2021-02-09 12:00:00 15.1 35 Sudoeste 50 Sudoeste 0 1010.7 -- 90
2021-02-09 11:00:00 14.7 23 Sudoeste 44 Sudoeste 0 1010.4 -- 94
2021-02-09 10:00:00 14.2 24 Sudoeste 39 Sudoeste 0 1010.6 -- 97
2021-02-09 09:00:00 14 26 Sudoeste 40 Sudoeste 0.1 1010.2 -- 97
2021-02-09 08:00:00 14.1 25 Sudoeste 41 Sudoeste 0 1010.1 -- 95
2021-02-09 07:00:00 13.7 26 Sudoeste 41 Sur 0 1009.9 -- 96
2021-02-09 06:00:00 13.3 19 Sudoeste 43 Sudoeste 0.7 1009.9 -- 99
2021-02-09 05:00:00 13.8 26 Sudoeste 36 Sudoeste 0 1009.9 -- 93
2021-02-09 04:00:00 13.7 22 Sudoeste 43 Sudoeste 0 1010.2 -- 91
2021-02-09 03:00:00 14.5 25 Sudoeste 42 Sudoeste 0 1010.5 -- 79
2021-02-09 02:00:00 14.6 22 Sudoeste 38 Sudoeste 0 1010.6 -- 84
2021-02-09 01:00:00 14.5 21 Oeste 32 Oeste 0 1011.4 -- 83
2021-02-09 00:00:00 14.4 18 Oeste 30 Sudoeste 0 1011.3 -- 82
2021-02-08 23:00:00 14.3 20 Oeste 34 Oeste 0 1011.2 -- 84
2021-02-08 22:00:00 14.4 23 Oeste 37 Oeste 0 1011.3 -- 84
2021-02-08 21:00:00 14.4 22 Oeste 40 Oeste 0 1010.8 -- 82
2021-02-08 20:00:00 14.5 23 Oeste 44 Oeste 0 1010.2 -- 80
2021-02-08 19:00:00 14.7 24 Oeste 45 Oeste 0 1009.5 -- 85
2021-02-08 18:00:00 15.2 29 Oeste 50 Oeste 0.1 1008.8 -- 81
2021-02-08 17:00:00 15.4 28 Oeste 52 Oeste 0 1008.5 -- 78
2021-02-08 16:00:00 15.5 24 Oeste 47 Oeste 0 1008.1 -- 81
2021-02-08 15:00:00 15.6 24 Oeste 45 Oeste 0 1007.8 -- 78
2021-02-08 14:00:00 15 22 Oeste 42 Oeste 0 1008.3 -- 86
2021-02-08 13:00:00 15 25 Oeste 43 Oeste 0 1008.5 -- 86
2021-02-08 12:00:00 14.1 23 Oeste 39 Oeste 0 1008.6 -- 87
2021-02-08 11:00:00 12.5 27 Oeste 47 Oeste 0.8 1008.3 -- 99
2021-02-08 10:00:00 11.9 26 Oeste 57 Sudoeste 4.7 1007.9 -- 99
2021-02-08 09:00:00 11.9 31 Sudoeste 67 Sur 24.2 1007.3 -- 99
2021-02-08 08:00:00 12.2 45 Sudoeste 71 Sur 1.9 1005.5 -- 99
2021-02-08 07:00:00 11.9 37 Sur 68 Sur 2.6 1006.3 -- 99
2021-02-08 06:00:00 12.2 41 Sudoeste 64 Sudoeste 0.1 1007 -- 99
2021-02-08 05:00:00 11.9 37 Sudoeste 56 Sur 0.1 1007.8 -- 98
2021-02-08 04:00:00 11.9 36 Sudoeste 57 Sudoeste 0 1008.4 -- 98
2021-02-08 03:00:00 11.7 32 Sudoeste 55 Sur 0.6 1009.4 -- 99
2021-02-08 02:00:00 12.1 32 Sudoeste 53 Sur 0.1 1009.6 -- 97
2021-02-08 01:00:00 11.9 32 Sudoeste 50 Sudoeste 0.4 1010.3 -- 99
2021-02-08 00:00:00 13 28 Sudoeste 56 Sudoeste 0.2 1010.8 -- 89
2021-02-07 23:00:00 13 28 Sudoeste 52 Oeste 0 1011.5 -- 86
2021-02-07 22:00:00 13.6 31 Sudoeste 54 Sudoeste 0 1011.5 -- 77
2021-02-07 21:00:00 13.2 27 Oeste 49 Oeste 0 1011.7 -- 86
2021-02-07 20:00:00 12.6 25 Oeste 55 Oeste 0 1011.4 -- 80
2021-02-07 19:00:00 13.6 24 Oeste 46 Oeste 0 1010.9 -- 75
2021-02-07 18:00:00 13.5 28 Oeste 45 Oeste 0 1010.9 -- 72
2021-02-07 17:00:00 12.8 23 Oeste 45 Oeste 0 1010.7 -- 71
2021-02-07 16:00:00 13 29 Oeste 58 Oeste 0 1010.5 -- 66
2021-02-07 15:00:00 13 33 Oeste 56 Oeste 0 1010.1 -- 66
2021-02-07 14:00:00 12.3 33 Oeste 57 Oeste 0 1010.5 -- 70
2021-02-07 13:00:00 12.5 32 Oeste 48 Oeste 0 1010.2 -- 74
2021-02-07 12:00:00 12.2 21 Oeste 49 Oeste 0 1010.3 -- 76
2021-02-07 11:00:00 11.9 27 Oeste 48 Oeste 0 1009.3 -- 81
2021-02-07 10:00:00 11.6 20 Oeste 32 Oeste 0 1008.6 -- 87
2021-02-07 09:00:00 10.6 14 Noroeste 30 Oeste 0.1 1007.6 -- 94
2021-02-07 08:00:00 10.5 16 Noroeste 26 Noroeste 0 1006.6 -- 95
2021-02-07 07:00:00 10.4 12 Noroeste 22 Noroeste 0 1005.7 -- 96
2021-02-07 06:00:00 10.2 13 Noroeste 32 Oeste 0.2 1005.5 -- 98
2021-02-07 05:00:00 10.9 21 Oeste 34 Oeste 1 1005.4 -- 94
2021-02-07 04:00:00 10.9 29 Oeste 54 Oeste 2.4 1005.6 -- 94
2021-02-07 03:00:00 10.6 23 Sudoeste 52 Sudoeste 1.3 1005.3 -- 95
2021-02-07 02:00:00 11.7 26 Oeste 42 Oeste 0 1005.4 -- 83
2021-02-07 01:00:00 11.5 22 Oeste 40 Oeste 1.7 1005.6 -- 85
2021-02-07 00:00:00 9.8 24 Sudoeste 75 Sudoeste 6.8 1005.8 -- 95
2021-02-06 23:00:00 12.5 17 Noroeste 40 Oeste 0.1 1004.9 -- 81
2021-02-06 22:00:00 13.3 23 Oeste 42 Oeste 0 1004.4 -- 78
2021-02-06 21:00:00 13.1 24 Oeste 46 Oeste 0 1004 -- 79
2021-02-06 20:00:00 13.1 26 Oeste 44 Oeste 0 1003.5 -- 80
2021-02-06 19:00:00 13.3 26 Oeste 45 Oeste 0 1003.1 -- 81
2021-02-06 18:00:00 13.7 24 Oeste 47 Oeste 0 1002.5 -- 80
2021-02-06 17:00:00 13 24 Oeste 44 Sudoeste 3.1 1002.1 -- 86
2021-02-06 16:00:00 12 28 Sudoeste 50 Oeste 0.4 1002.1 -- 87
2021-02-06 15:00:00 14.3 28 Oeste 47 Oeste 0 1001.9 -- 79
2021-02-06 14:00:00 14.5 26 Oeste 40 Oeste 0 1002.2 -- 83
2021-02-06 13:00:00 13.8 22 Oeste 37 Oeste 0 1003 -- 78
2021-02-06 12:00:00 13.5 23 Oeste 44 Sudoeste 0.6 1003.1 -- 81
2021-02-06 11:00:00 12.3 24 Sudoeste 40 Sur 0 1002.4 -- 93
2021-02-06 10:00:00 12.1 23 Sudoeste 47 Sudoeste 0 1001.9 -- 92
2021-02-06 09:00:00 11.8 23 Sudoeste 41 Sudoeste 1.1 1001.6 -- 95
2021-02-06 08:00:00 12.4 19 Sudoeste 34 Sudoeste 0.2 1001 -- 93
2021-02-06 07:00:00 13.5 19 Oeste 37 Oeste 0 1000.8 -- 80
2021-02-06 06:00:00 13.4 19 Oeste 35 Oeste 0 1000.6 -- 81
2021-02-06 05:00:00 13.2 22 Oeste 40 Oeste 0 1000.8 -- 82
2021-02-06 04:00:00 13.4 24 Oeste 39 Oeste 0 1000.8 -- 86
2021-02-06 03:00:00 12.6 22 Oeste 43 Oeste 0.2 1000.4 -- 92
2021-02-06 02:00:00 12.3 28 Sudoeste 50 Sudoeste 2.1 1000.3 -- 99
2021-02-06 01:00:00 12 25 Sur 55 Sur 0.5 1000.2 -- 98
2021-02-06 00:00:00 11.8 27 Sur 56 Sur 1 1000.1 -- 98
2021-02-05 23:00:00 12.8 28 Sur 46 Sudoeste 0.1 1000.2 -- 88
2021-02-05 22:00:00 13.4 24 Sur 52 Sur 0 999.6 -- 84
2021-02-05 21:00:00 14 20 Sur 37 Sudoeste 0 999.7 -- 78
2021-02-05 20:00:00 14.1 21 Sur 37 Sur 0 999.8 -- 76
2021-02-05 19:00:00 14 24 Sur 37 Sur 0 999.2 -- 76
2021-02-05 18:00:00 14.4 20 Sur 35 Sur 0 999 -- 74
2021-02-05 17:00:00 14.4 20 Sur 34 Sudoeste 0 999.3 -- 74
2021-02-05 16:00:00 14.2 9 Sudoeste 24 Sudoeste 0 999 -- 77
2021-02-05 15:00:00 14.5 16 Sudoeste 31 Sudoeste 0 999.4 -- 81
2021-02-05 14:00:00 15.2 13 Sudoeste 22 Sudoeste 0 999.5 -- 86
2021-02-05 13:00:00 14.9 12 Sudoeste 17 Sudoeste 0 1000.1 -- 91
2021-02-05 12:00:00 14 10 Sudoeste 25 Sudoeste 0 1000.5 -- 96
2021-02-05 11:00:00 14.6 12 Sudoeste 20 Sudoeste 0 1000.3 -- 90
2021-02-05 10:00:00 14.3 6 Oeste 11 Oeste 0 1000.4 -- 94
2021-02-05 09:00:00 14 0 Calma 6 Nordeste 0 999.8 -- 97
2021-02-05 08:00:00 14.2 5 Este 13 Nordeste 0 999.1 -- 96
2021-02-05 07:00:00 14 9 Nordeste 15 Este 0 998.6 -- 96
2021-02-05 06:00:00 13.4 9 Nordeste 15 Nordeste 0 998.4 -- 97
2021-02-05 05:00:00 14 6 Nordeste 20 Este 0 998.9 -- 96
2021-02-05 04:00:00 14 12 Este 27 Este 0 999.5 -- 95
2021-02-05 03:00:00 13.9 16 Este 40 Este 0 999.7 -- 89
2021-02-05 02:00:00 14.6 27 Este 42 Nordeste 0 998.9 -- 77
2021-02-05 01:00:00 14.5 14 Este 23 Nordeste 0 1000.6 -- 80
2021-02-05 00:00:00 14.6 9 Este 22 Este 0 1001.1 -- 82
2021-02-04 23:00:00 14.1 20 Este 46 Este 0 1001 -- 91
2021-02-04 22:00:00 14.2 27 Este 42 Este 0 1000.5 -- 87
2021-02-04 21:00:00 14.2 19 Este 31 Este 0 1001.3 -- 97
2021-02-04 20:00:00 14.2 18 Este 30 Este 0 1002.1 -- 97
2021-02-04 19:00:00 14.3 10 Este 23 Nordeste 0 1002.2 -- 97
2021-02-04 18:00:00 14.8 14 Este 24 Este 0 1002.7 -- 91
2021-02-04 17:00:00 16 15 Este 27 Este 0 1003.4 -- 83
2021-02-04 16:00:00 16.2 19 Este 32 Este 0 1003.6 -- 84
2021-02-04 15:00:00 16.5 19 Este 32 Este 0 1004 -- 88
2021-02-04 14:00:00 16.2 21 Este 33 Nordeste 0 1004.8 -- 85
2021-02-04 13:00:00 16 22 Este 36 Este 0 1005.6 -- 86
2021-02-04 12:00:00 15.6 22 Este 32 Nordeste 0 1006.4 -- 87
2021-02-04 11:00:00 15.3 14 Este 22 Este 0 1006.6 -- 88
2021-02-04 10:00:00 14.3 12 Este 20 Este 0 1006.5 -- 89
2021-02-04 09:00:00 12 10 Nordeste 14 Nordeste 0 1006.7 -- 96
2021-02-04 08:00:00 10.1 8 Nordeste 10 Este 0 1006.8 -- 99
2021-02-04 07:00:00 10 5 Nordeste 9 Este 0 1006.8 -- 99
2021-02-04 06:00:00 10.7 4 Nordeste 11 Noroeste 0 1006.8 -- 97
2021-02-04 05:00:00 12.1 9 Norte 14 Noroeste 0 1007.4 -- 94
2021-02-04 04:00:00 12.9 9 Noroeste 12 Noroeste 0 1008.2 -- 92
2021-02-04 03:00:00 13.4 5 Noroeste 10 Oeste 0 1008.5 -- 94
2021-02-04 02:00:00 14.3 8 Oeste 14 Oeste 0 1009.2 -- 88
2021-02-04 01:00:00 14.7 8 Oeste 19 Oeste 0 1009.9 -- 89
2021-02-04 00:00:00 14.9 11 Oeste 28 Oeste 0 1010.4 -- 84
2021-02-03 23:00:00 14.9 17 Oeste 28 Oeste 0 1010.7 -- 83
2021-02-03 22:00:00 14.7 10 Noroeste 30 Sudoeste 0 1010.9 -- 89
2021-02-03 21:00:00 14.7 10 Oeste 19 Oeste 0 1010.9 -- 92
2021-02-03 20:00:00 14.5 11 Oeste 21 Oeste 0 1010.9 -- 88
2021-02-03 19:00:00 14.8 13 Oeste 24 Oeste 0 1011.1 -- 87
2021-02-03 18:00:00 15.7 17 Oeste 28 Oeste 0 1011.1 -- 82
2021-02-03 17:00:00 16 18 Oeste 29 Sudoeste 0 1011 -- 82
2021-02-03 16:00:00 15.9 16 Oeste 33 Oeste 0 1011.2 -- 85
2021-02-03 15:00:00 16.4 18 Oeste 33 Oeste 0 1011.3 -- 87
2021-02-03 14:00:00 15.9 19 Oeste 33 Oeste 0 1012 -- 89
2021-02-03 13:00:00 15.6 19 Oeste 30 Oeste 0 1012.7 -- 92
2021-02-03 12:00:00 15.2 15 Oeste 24 Oeste 0 1013.2 -- 92
2021-02-03 11:00:00 14 10 Noroeste 20 Oeste 0 1013.5 -- 93
2021-02-03 10:00:00 12.4 12 Noroeste 20 Noroeste 0 1013.4 -- 91
2021-02-03 09:00:00 11.8 14 Noroeste 21 Noroeste 0 1013 -- 92
2021-02-03 08:00:00 11.5 13 Noroeste 19 Noroeste 0 1012.8 -- 94
2021-02-03 07:00:00 11.5 13 Noroeste 20 Noroeste 0 1012.8 -- 95
2021-02-03 06:00:00 11.8 10 Noroeste 18 Noroeste 0 1012.9 -- 97
2021-02-03 05:00:00 11.8 10 Noroeste 18 Noroeste 0 1013 -- 99
2021-02-03 04:00:00 11.8 10 Noroeste 18 Noroeste 0 1013.5 -- 98
2021-02-03 03:00:00 12.1 12 Noroeste 19 Noroeste 0 1013.8 -- 99
2021-02-03 02:00:00 12.2 13 Noroeste 21 Noroeste 0 1013.9 -- 97
2021-02-03 01:00:00 12.5 14 Noroeste 22 Noroeste 0 1014.3 -- 96
2021-02-03 00:00:00 13.5 14 Noroeste 27 Oeste 0 1014.2 -- 93
2021-02-02 23:00:00 13.7 13 Noroeste 24 Noroeste 0 1014.2 -- 93
2021-02-02 22:00:00 13.8 10 Noroeste 17 Noroeste 0 1013.9 -- 93
2021-02-02 21:00:00 14.2 11 Noroeste 19 Noroeste 0 1013.8 -- 92
2021-02-02 20:00:00 14.7 12 Noroeste 27 Oeste 0 1013.6 -- 89
2021-02-02 19:00:00 15 19 Oeste 33 Oeste 0 1013.4 -- 90
2021-02-02 18:00:00 15.6 17 Oeste 33 Oeste 0 1013.1 -- 87
2021-02-02 17:00:00 16 23 Oeste 33 Oeste 0 1013 -- 87
2021-02-02 16:00:00 16.1 23 Oeste 31 Oeste 0 1013.4 -- 85
2021-02-02 15:00:00 16.1 22 Oeste 31 Oeste 0 1014.2 -- 83
2021-02-02 14:00:00 16 21 Oeste 32 Oeste 0 1015 -- 92
2021-02-02 13:00:00 16.5 17 Oeste 29 Oeste 0 1016.2 -- 80
2021-02-02 12:00:00 15.9 18 Oeste 30 Sudoeste 0 1017.1 -- 90
2021-02-02 11:00:00 15.4 14 Oeste 23 Oeste 0 1016.8 -- 84
2021-02-02 10:00:00 14.6 16 Noroeste 26 Oeste 0 1016.4 -- 83
2021-02-02 09:00:00 13.2 9 Noroeste 20 Noroeste 0 1016.5 -- 99
2021-02-02 08:00:00 14.1 12 Oeste 24 Oeste 0 1016.3 -- 98
2021-02-02 07:00:00 14 12 Oeste 19 Noroeste 0 1016.2 -- 95
2021-02-02 06:00:00 13.7 12 Oeste 22 Noroeste 0 1016.4 -- 98
2021-02-02 05:00:00 13.5 10 Noroeste 25 Oeste 0 1016.5 -- 98
2021-02-02 04:00:00 14.1 16 Noroeste 27 Noroeste 0 1016.8 -- 94
2021-02-02 03:00:00 14.5 15 Oeste 26 Oeste 0 1016.9 -- 99
2021-02-02 02:00:00 14.3 14 Oeste 23 Oeste 0 1017 -- 99
2021-02-02 01:00:00 14.2 12 Oeste 18 Oeste 0 1017.4 -- 99
2021-02-02 00:00:00 14.2 14 Oeste 21 Oeste 0 1017.3 -- 98
2021-02-01 23:00:00 14.5 14 Oeste 21 Oeste 0 1017.7 -- 96
2021-02-01 22:00:00 14.7 15 Oeste 24 Oeste 0 1017.9 -- 90
2021-02-01 21:00:00 14.7 14 Oeste 23 Oeste 0 1018 -- 90
2021-02-01 20:00:00 14.8 13 Noroeste 32 Oeste 0 1018 -- 88
2021-02-01 19:00:00 14.8 18 Oeste 32 Oeste 0 1017.6 -- 87
2021-02-01 18:00:00 15.2 19 Oeste 33 Oeste 0 1017.5 -- 90
2021-02-01 17:00:00 15.6 23 Oeste 34 Oeste 0 1017.2 -- 90
2021-02-01 16:00:00 15.7 24 Oeste 39 Oeste 0 1017.1 -- 91
2021-02-01 15:00:00 15.2 27 Oeste 39 Oeste 0 1017.7 -- 92
2021-02-01 14:00:00 15.2 21 Oeste 41 Sudoeste 0.1 1017.8 -- 96
2021-02-01 13:00:00 14.9 22 Oeste 38 Sudoeste 0 1018.5 -- 99
2021-02-01 12:00:00 14.9 24 Sudoeste 37 Sudoeste 0 1018.8 -- 98
2021-02-01 11:00:00 14.7 24 Sudoeste 36 Sudoeste 0 1018.6 -- 99
2021-02-01 10:00:00 15 19 Oeste 35 Oeste 0 1017.9 -- 99
2021-02-01 09:00:00 14.8 24 Oeste 37 Oeste 0 1017.4 -- 99
2021-02-01 08:00:00 14.7 18 Oeste 37 Oeste 0.7 1017.1 -- 99
2021-02-01 07:00:00 15 25 Oeste 41 Sudoeste 0.4 1016.9 -- 99
2021-02-01 06:00:00 14.9 27 Sudoeste 42 Sudoeste 0.3 1016.7 -- 99
2021-02-01 05:00:00 14.6 28 Sudoeste 45 Sudoeste 0.2 1016.5 -- 99
2021-02-01 04:00:00 14.5 30 Sudoeste 47 Sudoeste 0.6 1016.5 -- 99
2021-02-01 03:00:00 14.4 30 Sudoeste 51 Sudoeste 0.7 1017.9 -- 99
2021-02-01 02:00:00 14.5 32 Sudoeste 52 Sudoeste 0 1017.5 -- 99
2021-02-01 01:00:00 14.2 28 Sudoeste 51 Sudoeste 0.5 1017.9 -- 99
2021-02-01 00:00:00 14.6 29 Sudoeste 52 Sudoeste 0 1018.2 -- 98
2021-01-31 23:00:00 14.4 27 Sudoeste 48 Sudoeste 0 1018.2 -- 96
2021-01-31 22:00:00 15.1 28 Sudoeste 45 Oeste 0 1018.2 -- 89
2021-01-31 21:00:00 15.1 28 Sudoeste 48 Sudoeste 0 1018 -- 89
2021-01-31 20:00:00 15 27 Sudoeste 42 Oeste 0 1018 -- 90
2021-01-31 19:00:00 15 25 Oeste 45 Oeste 0 1017.9 -- 90
2021-01-31 18:00:00 15.1 28 Oeste 44 Oeste 0 1017.8 -- 88
2021-01-31 17:00:00 15.3 26 Oeste 43 Oeste 0 1017.9 -- 90
2021-01-31 16:00:00 15.5 24 Oeste 40 Oeste 0 1017.9 -- 88
2021-01-31 15:00:00 15.1 25 Oeste 38 Oeste 0 1018.2 -- 91
2021-01-31 14:00:00 15.2 23 Oeste -- -- 0 1018.8 -- 90
2021-01-31 13:00:00 15.6 28 Oeste 41 Oeste 0 1019.3 -- 87
2021-01-31 12:00:00 14.5 26 Oeste 43 Oeste 0 1020 -- 94
2021-01-31 11:00:00 15 23 Oeste 36 Oeste 0 1019.8 -- 86
2021-01-31 10:00:00 14.3 18 Noroeste 36 Oeste 0 1019.4 -- 88
2021-01-31 09:00:00 13.9 21 Oeste 44 Oeste 0 1018.8 -- 87
2021-01-31 08:00:00 14.1 24 Oeste 42 Oeste 0 1018.5 -- 84
2021-01-31 07:00:00 14 17 Oeste 32 Oeste 0 1018.2 -- 85
2021-01-31 06:00:00 13.8 20 Oeste 37 Oeste 0 1017.8 -- 83
2021-01-31 05:00:00 13.8 21 Oeste 37 Oeste 0 1017.7 -- 83
2021-01-31 04:00:00 13.7 23 Oeste 37 Oeste 0 1018.1 -- 81
2021-01-31 03:00:00 13.8 26 Oeste 41 Oeste 0 1018.1 -- 82
2021-01-31 02:00:00 13.5 20 Oeste 31 Oeste 0 1018 -- 84
2021-01-31 01:00:00 13 14 Noroeste 31 Noroeste 0 1018.3 -- 74
2021-01-31 00:00:00 13.5 15 Noroeste 34 Oeste 0 1018.4 -- 75
2021-01-30 23:00:00 14.3 19 Oeste 38 Oeste 0 1017.9 -- 83
2021-01-30 22:00:00 14.7 24 Oeste 41 Oeste 0 1017.6 -- 92
2021-01-30 21:00:00 14.6 27 Oeste 42 Oeste 0 1017.1 -- 94
2021-01-30 20:00:00 14.6 25 Oeste 41 Oeste 0 1016.5 -- 95
2021-01-30 19:00:00 14.5 27 Oeste 41 Oeste 0 1016.1 -- 97
2021-01-30 18:00:00 14.8 24 Oeste 39 Oeste 0 1016.1 -- 99
2021-01-30 17:00:00 15 23 Oeste 40 Oeste 0 1015.8 -- 99
2021-01-30 16:00:00 14.9 28 Oeste 57 Sudoeste 1.5 1015.8 -- 99
2021-01-30 15:00:00 14.6 35 Sudoeste 60 Sudoeste 0.3 1015.9 -- 99
2021-01-30 14:00:00 14.7 36 Sudoeste 63 Sudoeste 0 1016.5 -- 99
2021-01-30 13:00:00 15.2 37 Sudoeste 57 Sudoeste 0 1017.2 -- 92
2021-01-30 12:00:00 14.8 27 Sudoeste 45 Sudoeste 0 1017.4 -- 96
2021-01-30 11:00:00 15.1 27 Sudoeste 47 Sudoeste 0 1017.5 -- 96
2021-01-30 10:00:00 14 26 Sudoeste 46 Sudoeste 0 1017.9 -- 99
2021-01-30 09:00:00 14.1 32 Sudoeste 46 Sudoeste 0 1017.9 -- 97
2021-01-30 08:00:00 13.8 18 Oeste 41 Oeste 0 1018.1 -- 99
2021-01-30 07:00:00 14.3 25 Oeste 41 Oeste 0 1017.7 -- 92
2021-01-30 06:00:00 14.5 26 Oeste 42 Oeste 0 1017.4 -- 89
2021-01-30 05:00:00 14.4 24 Sudoeste 36 Oeste 0 1017 -- 89
2021-01-30 04:00:00 14.4 18 Oeste 35 Sudoeste 0 1017.7 -- 92
2021-01-30 03:00:00 14.4 20 Oeste 44 Oeste 0 1018.3 -- 91
2021-01-30 02:00:00 14.5 28 Oeste 39 Oeste 0 1018.9 -- 90
2021-01-30 01:00:00 14.5 19 Oeste 35 Oeste 0 1019.1 -- 91
2021-01-30 00:00:00 14.4 22 Oeste 40 Oeste 0 1019.2 -- 91
2021-01-29 23:00:00 14.2 23 Oeste 36 Oeste 0 1019.3 -- 93
2021-01-29 22:00:00 14.2 22 Oeste 33 Sudoeste 0 1019 -- 92
2021-01-29 21:00:00 14.5 19 Oeste 33 Oeste 0 1019.1 -- 91
2021-01-29 20:00:00 14.7 21 Oeste 32 Oeste 0 1018.9 -- 91
2021-01-29 19:00:00 14.9 18 Oeste 32 Noroeste 0 1018.7 -- 92
2021-01-29 18:00:00 14.9 20 Oeste 30 Noroeste 0 1018.5 -- 91
2021-01-29 17:00:00 15.2 15 Noroeste 30 Oeste 0 1018.5 -- 94
2021-01-29 16:00:00 15.3 16 Oeste 28 Oeste 0 1018.4 -- 93
2021-01-29 15:00:00 15 20 Oeste 30 Oeste 0 1018.8 -- 95
2021-01-29 14:00:00 -- 17 Oeste 31 Oeste 0 -- -- --
2021-01-29 13:00:00 14.4 17 Oeste 29 Oeste 0 1020.2 -- 99
2021-01-29 12:00:00 14.2 15 Oeste 24 Oeste 0 1020.4 -- 99
2021-01-29 11:00:00 14.1 14 Oeste 25 Oeste 0 1020.2 -- 99
2021-01-29 10:00:00 14 15 Noroeste 24 Noroeste 0 1019.8 -- 99
2021-01-29 09:00:00 13.7 12 Noroeste 21 Oeste 0 1019.3 -- 99
2021-01-29 08:00:00 13 13 Noroeste 23 Noroeste 0 1018.8 -- 99
2021-01-29 07:00:00 12.6 13 Noroeste 21 Noroeste 0 1018.4 -- 99
2021-01-29 06:00:00 12.1 14 Noroeste 23 Noroeste 0 1018.5 -- 99
2021-01-29 05:00:00 13.2 12 Oeste 20 Oeste 0 1018.6 -- 99
2021-01-29 04:00:00 13.2 13 Oeste 23 Oeste 0 1019.2 -- 99
2021-01-29 03:00:00 13.2 10 Oeste 18 Sudoeste 0 1018.9 -- 99
2021-01-29 02:00:00 13 10 Oeste 18 Oeste 0 1019.3 -- 99
2021-01-29 01:00:00 13.7 7 Oeste 13 Oeste 0 1019.1 -- 99
2021-01-29 00:00:00 13.9 5 Noroeste 10 Oeste 0 1018.9 -- 99
2021-01-28 23:00:00 13.7 0 Calma 11 Oeste 0 1018.7 -- 99
2021-01-28 22:00:00 14.6 4 Oeste 10 Sudoeste 0 1018.4 -- 98
2021-01-28 21:00:00 16.2 8 Nordeste 19 Nordeste 0 1018.2 -- 87
2021-01-28 20:00:00 15.9 8 Nordeste 17 Nordeste 0 1018.1 -- 87
2021-01-28 19:00:00 16.5 13 Nordeste 22 Nordeste 0 1018.3 -- 85
2021-01-28 18:00:00 17 17 Este 27 Este 0 1017.9 -- 85
2021-01-28 17:00:00 18.1 19 Nordeste 33 Este 0 1017.8 -- 82
2021-01-28 16:00:00 18.3 22 Este 34 Este 0 1017.8 -- 82
2021-01-28 15:00:00 18 22 Este 32 Este 0 1018 -- 82
2021-01-28 14:00:00 18 22 Este 32 Este 0 1018.8 -- 82
2021-01-28 13:00:00 18.7 17 Nordeste 28 Nordeste 0 1019.7 -- 80
2021-01-28 12:00:00 17.4 16 Este 24 Este 0 1020.1 -- 91
2021-01-28 11:00:00 14.3 10 Este 18 Este 0.1 1020 -- 99
2021-01-28 10:00:00 -- -- -- -- -- -- -- -- --
2021-01-28 09:00:00 -- -- -- -- -- -- -- -- --
2021-01-28 08:00:00 -- -- -- -- -- -- -- -- --
2021-01-28 07:00:00 -- -- -- -- -- -- -- -- --
2021-01-28 06:00:00 -- -- -- -- -- -- -- -- --
2021-01-28 05:00:00 -- -- -- -- -- -- -- -- --
2021-01-28 04:00:00 -- -- -- -- -- -- -- -- --
2021-01-28 03:00:00 -- -- -- -- -- -- -- -- --
2021-01-28 02:00:00 -- -- -- -- -- -- -- -- --
2021-01-28 01:00:00 -- -- -- -- -- -- -- -- --
2021-01-28 00:00:00 -- -- -- -- -- -- -- -- --
2021-01-27 23:00:00 -- -- -- -- -- -- -- -- --
2021-01-27 22:00:00 -- -- -- -- -- -- -- -- --
2021-01-27 21:00:00 -- -- -- -- -- -- -- -- --
2021-01-27 20:00:00 -- -- -- -- -- -- -- -- --
2021-01-27 19:00:00 -- -- -- -- -- -- -- -- --
2021-01-27 18:00:00 -- -- -- -- -- -- -- -- --
2021-01-27 17:00:00 -- -- -- -- -- -- -- -- --
2021-01-27 16:00:00 -- -- -- -- -- -- -- -- --
2021-01-27 15:00:00 -- -- -- -- -- -- -- -- --
2021-01-27 14:00:00 -- -- -- -- -- -- -- -- --
2021-01-27 13:00:00 -- -- -- -- -- -- -- -- --
2021-01-27 12:00:00 -- -- -- -- -- -- -- -- --
2021-01-27 11:00:00 -- -- -- -- -- -- -- -- --
2021-01-27 10:00:00 -- -- -- -- -- -- -- -- --
2021-01-27 09:00:00 -- -- -- -- -- -- -- -- --
2021-01-27 08:00:00 -- -- -- -- -- -- -- -- --
2021-01-27 07:00:00 -- -- -- -- -- -- -- -- --
2021-01-27 06:00:00 -- -- -- -- -- -- -- -- --
2021-01-27 05:00:00 -- -- -- -- -- -- -- -- --
2021-01-27 04:00:00 -- -- -- -- -- -- -- -- --
2021-01-27 03:00:00 -- -- -- -- -- -- -- -- --
2021-01-27 02:00:00 -- -- -- -- -- -- -- -- --
2021-01-27 01:00:00 -- -- -- -- -- -- -- -- --
2021-01-27 00:00:00 -- -- -- -- -- -- -- -- --
2021-01-26 23:00:00 -- -- -- -- -- -- -- -- --
2021-01-26 22:00:00 -- -- -- -- -- -- -- -- --
2021-01-26 21:00:00 -- -- -- -- -- -- -- -- --
2021-01-26 20:00:00 -- -- -- -- -- -- -- -- --
2021-01-26 19:00:00 -- -- -- -- -- -- -- -- --
2021-01-26 18:00:00 -- -- -- -- -- -- -- -- --
2021-01-26 17:00:00 -- -- -- -- -- -- -- -- --
2021-01-26 16:00:00 -- -- -- -- -- -- -- -- --
2021-01-26 15:00:00 -- -- -- -- -- -- -- -- --
2021-01-26 14:00:00 -- -- -- -- -- -- -- -- --
2021-01-26 13:00:00 -- -- -- -- -- -- -- -- --
2021-01-26 12:00:00 -- -- -- -- -- -- -- -- --
2021-01-26 11:00:00 -- -- -- -- -- -- -- -- --
2021-01-26 10:00:00 15.5 19 Sudoeste 30 Sudoeste 0 1021.8 -- 99
2021-01-26 09:00:00 15.3 10 Oeste 20 Oeste 0 1021.3 -- 99
2021-01-26 08:00:00 15.3 14 Oeste 25 Oeste 0 1021.1 -- 99
2021-01-26 07:00:00 15.1 15 Oeste 29 Oeste 0 1020.5 -- 99
2021-01-26 06:00:00 15 14 Oeste 24 Oeste 0 1020.3 -- 99
2021-01-26 05:00:00 15.1 13 Oeste 24 Oeste 0 1020.1 -- 99
2021-01-26 04:00:00 15.1 15 Oeste 28 Oeste 0 1020 -- 99
2021-01-26 03:00:00 15.3 17 Oeste 32 Oeste 0 1019.7 -- 99
2021-01-26 02:00:00 15.1 20 Oeste 39 Sudoeste 0 1019.5 -- 99
2021-01-26 01:00:00 15.4 28 Sudoeste 45 Oeste 0 1019.1 -- 99
2021-01-26 00:00:00 15.4 27 Sudoeste 41 Oeste 0 1019.3 -- 99
2021-01-25 23:00:00 15.2 23 Oeste 39 Oeste 0 1019 -- 99
2021-01-25 22:00:00 15.3 22 Oeste 37 Oeste 0 1018.4 -- 99
2021-01-25 21:00:00 15.1 26 Oeste 39 Oeste 0 1018.1 -- 98
2021-01-25 20:00:00 15.2 24 Oeste 35 Oeste 0.1 1017.6 -- 98
2021-01-25 19:00:00 15.2 27 Oeste 40 Oeste 0 1016.8 -- 98
2021-01-25 18:00:00 14.7 24 Oeste 50 Sudoeste 2.4 1016.3 -- 99
2021-01-25 17:00:00 15.9 34 Sudoeste 51 Sudoeste 0 1015.6 -- 98
2021-01-25 16:00:00 16 32 Sudoeste 52 Sudoeste 0 1015.5 -- 96
2021-01-25 15:00:00 16.3 30 Sudoeste 47 Sudoeste 0 1015.7 -- 93
2021-01-25 14:00:00 16.7 27 Sudoeste 46 Oeste 0 1015.7 -- 93
2021-01-25 13:00:00 16.5 27 Sudoeste 44 Sudoeste 0 1016.5 -- 95
2021-01-25 12:00:00 16.2 27 Sudoeste 42 Sudoeste 0 1016.8 -- 96
2021-01-25 11:00:00 15.8 24 Sudoeste 34 Sudoeste 0 1017.1 -- 97
2021-01-25 10:00:00 14.6 14 Oeste 42 Oeste 0 1016.2 -- 99
2021-01-25 09:00:00 15.4 15 Oeste 34 Sudoeste 0 1015.8 -- 99
2021-01-25 08:00:00 15.3 22 Sudoeste 33 Sudoeste 0 1015.4 -- 99
2021-01-25 07:00:00 15.4 22 Oeste 36 Oeste 0 1015.2 -- 99
2021-01-25 06:00:00 15.3 20 Sudoeste 30 Oeste 0 1014.9 -- 99
2021-01-25 05:00:00 15.1 14 Oeste 24 Oeste 0 1015.2 -- 99
2021-01-25 04:00:00 14.9 16 Oeste 26 Oeste 0 1015.2 -- 99
2021-01-25 03:00:00 14.8 14 Oeste 23 Oeste 0 1015.3 -- 99
2021-01-25 02:00:00 14.2 7 Noroeste 14 Noroeste 0 1015.4 -- 99
2021-01-25 01:00:00 13.8 9 Noroeste 15 Noroeste 0 1015.8 -- 99
2021-01-25 00:00:00 13.6 8 Noroeste 12 Noroeste 0 1016 -- 98